Time;durP1;ratioP1;P1;durP2;ratioP2;P2;SDS_P1;SDS_P2;PMS_P1;PMS_P2;Temp;Humidity;BMP_temperature;BMP_pressure;BME280_temperature;BME280_humidity;BME280_pressure;Samples;Min_cycle;Max_cycle;Signal;HPM_P1;HPM_P2
2023/01/11 00:00:45;;;;;;;5.80;1.02;;;6.50;84.40;;;;;;5041865;28;20057;-61
2023/01/11 00:03:13;;;;;;;5.60;1.13;;;6.50;84.10;;;;;;5049541;28;20055;-60
2023/01/11 00:05:41;;;;;;;3.83;0.93;;;6.50;84.20;;;;;;5051385;28;20610;-61
2023/01/11 00:08:13;;;;;;;2.03;0.80;;;6.50;84.00;;;;;;5049599;28;20045;-60
2023/01/11 00:10:40;;;;;;;4.03;1.13;;;6.50;84.10;;;;;;5050363;28;20048;-62
2023/01/11 00:13:14;;;;;;;3.65;0.70;;;6.50;84.10;;;;;;5055922;28;20055;-60
2023/01/11 00:15:42;;;;;;;4.95;1.17;;;6.50;84.00;;;;;;5053818;28;20056;-59
2023/01/11 00:18:10;;;;;;;4.82;1.10;;;6.50;84.10;;;;;;5055595;28;20116;-61
2023/01/11 00:20:39;;;;;;;3.72;1.00;;;6.50;84.20;;;;;;5055341;28;20048;-60
2023/01/11 00:23:06;;;;;;;5.15;0.93;;;6.50;84.10;;;;;;5054696;28;20055;-60
2023/01/11 00:25:33;;;;;;;3.38;0.88;;;6.50;84.20;;;;;;5055265;28;20049;-59
2023/01/11 00:28:00;;;;;;;2.72;0.80;;;6.50;84.20;;;;;;5052266;28;23477;-61
2023/01/11 00:30:28;;;;;;;4.60;1.35;;;6.60;84.20;;;;;;5050927;28;20419;-60
2023/01/11 00:32:57;;;;;;;3.67;0.80;;;6.60;84.10;;;;;;5050919;28;20046;-60
2023/01/11 00:35:24;;;;;;;4.72;1.10;;;6.60;84.10;;;;;;5055629;28;20123;-60
2023/01/11 00:37:52;;;;;;;4.35;0.90;;;6.60;84.20;;;;;;5052196;28;20504;-60
2023/01/11 00:40:20;;;;;;;4.60;0.90;;;6.60;84.40;;;;;;5049314;28;20068;-60
2023/01/11 00:48:18;;;;;;;3.88;0.93;;;6.60;84.40;;;;;;5061556;28;20109;-62
2023/01/11 00:50:44;;;;;;;2.20;1.00;;;6.60;84.50;;;;;;5063402;28;20886;-62
2023/01/11 00:53:13;;;;;;;4.70;1.20;;;6.70;85.10;;;;;;5050312;28;20045;-60
2023/01/11 00:55:40;;;;;;;5.05;0.80;;;6.70;85.10;;;;;;5049922;28;20115;-60
2023/01/11 00:58:06;;;;;;;3.22;0.95;;;6.70;84.70;;;;;;5059486;28;20049;-62
2023/01/11 01:00:33;;;;;;;2.55;0.80;;;6.70;84.70;;;;;;5051711;28;20048;-60
2023/01/11 01:03:00;;;;;;;2.95;0.88;;;6.70;85.00;;;;;;5047142;28;20048;-59
2023/01/11 01:05:29;;;;;;;3.75;1.02;;;6.70;85.00;;;;;;5061496;28;20060;-60
2023/01/11 01:07:56;;;;;;;4.03;0.85;;;6.70;84.90;;;;;;5046060;28;20041;-69
2023/01/11 01:10:23;;;;;;;3.45;0.75;;;6.70;85.00;;;;;;5043082;28;22905;-71
2023/01/11 01:15:34;;;;;;;5.15;1.00;;;6.70;84.90;;;;;;5046849;28;20403;-61
2023/01/11 01:18:02;;;;;;;2.67;1.00;;;6.70;85.20;;;;;;5043600;28;20045;-60
2023/01/11 01:20:30;;;;;;;2.30;0.93;;;6.70;85.20;;;;;;5049073;28;20128;-61
2023/01/11 01:22:57;;;;;;;5.40;1.42;;;6.70;84.90;;;;;;5045370;28;20053;-60
2023/01/11 01:25:24;;;;;;;3.88;0.65;;;6.70;85.00;;;;;;5047411;28;20056;-59
2023/01/11 01:27:51;;;;;;;5.10;0.80;;;6.70;85.20;;;;;;5046833;28;20055;-60
2023/01/11 01:30:18;;;;;;;4.80;0.95;;;6.70;85.20;;;;;;5047664;28;20075;-61
2023/01/11 01:32:45;;;;;;;2.10;0.55;;;6.80;85.20;;;;;;5058320;28;20056;-60
2023/01/11 01:35:12;;;;;;;3.78;0.85;;;6.80;85.70;;;;;;5057808;28;20048;-60
2023/01/11 01:37:40;;;;;;;3.13;1.10;;;6.80;85.70;;;;;;5046177;28;20056;-61
2023/01/11 01:40:08;;;;;;;2.42;0.80;;;6.80;85.70;;;;;;5047856;28;20056;-60
2023/01/11 01:42:35;;;;;;;3.65;0.80;;;6.80;85.50;;;;;;5037629;28;20547;-60
2023/01/11 01:45:06;;;;;;;1.92;0.80;;;6.80;85.60;;;;;;5041206;28;20049;-62
2023/01/11 01:47:39;;;;;;;2.95;0.77;;;6.80;85.50;;;;;;5035940;28;20053;-61
2023/01/11 01:50:12;;;;;;;3.28;1.00;;;6.80;85.50;;;;;;5037384;28;20439;-61
2023/01/11 01:52:41;;;;;;;2.80;0.88;;;6.80;85.50;;;;;;5037514;28;20056;-61
2023/01/11 01:55:12;;;;;;;2.22;0.80;;;6.70;85.60;;;;;;5030938;28;20050;-61
2023/01/11 01:57:42;;;;;;;4.07;1.00;;;6.80;85.90;;;;;;5033424;28;20515;-60
2023/01/11 02:00:11;;;;;;;4.22;1.08;;;6.80;85.80;;;;;;5050655;28;20056;-61
2023/01/11 02:02:40;;;;;;;1.95;0.80;;;6.80;85.70;;;;;;5053376;28;20063;-61
2023/01/11 02:05:09;;;;;;;2.40;0.70;;;6.80;85.80;;;;;;5049058;28;20072;-60
2023/01/11 02:07:39;;;;;;;2.90;0.90;;;6.80;85.90;;;;;;5058274;28;20470;-61
2023/01/11 02:10:10;;;;;;;2.80;0.93;;;6.80;85.90;;;;;;5061045;28;20060;-61
2023/01/11 02:12:40;;;;;;;3.83;0.93;;;6.80;86.10;;;;;;5052735;28;20451;-60
2023/01/11 02:15:09;;;;;;;3.00;1.02;;;6.80;86.00;;;;;;5052578;28;20517;-61
2023/01/11 02:17:36;;;;;;;4.63;1.00;;;6.90;86.20;;;;;;5050695;28;20048;-59
2023/01/11 02:20:13;;;;;;;4.88;0.98;;;6.80;86.10;;;;;;5047769;28;20044;-60
2023/01/11 02:23:13;;;;;;;2.60;0.65;;;6.80;86.20;;;;;;5051616;28;20083;-59
2023/01/11 02:26:16;;;;;;;3.58;0.98;;;6.80;86.20;;;;;;5048911;28;20071;-67
2023/01/11 02:28:52;;;;;;;2.70;0.80;;;6.80;86.20;;;;;;5051034;28;20048;-63
2023/01/11 02:31:28;;;;;;;3.92;0.88;;;6.80;86.40;;;;;;5054523;28;20044;-63
2023/01/11 02:34:05;;;;;;;3.25;0.70;;;6.80;86.30;;;;;;5050418;28;20415;-63
2023/01/11 02:36:44;;;;;;;3.97;0.90;;;6.80;86.20;;;;;;5045285;28;20045;-61
2023/01/11 02:39:21;;;;;;;2.42;0.80;;;6.90;86.30;;;;;;5052446;28;20501;-61
2023/01/11 02:45:01;;;;;;;3.78;0.70;;;6.80;86.40;;;;;;5046937;28;20664;-61
2023/01/11 02:47:35;;;;;;;4.88;0.88;;;6.90;86.50;;;;;;5047300;28;20059;-64
2023/01/11 02:50:12;;;;;;;3.20;0.88;;;6.80;86.30;;;;;;5059800;28;20090;-64
2023/01/11 02:52:46;;;;;;;2.75;0.70;;;6.80;86.40;;;;;;5049773;28;20045;-63
2023/01/11 02:55:16;;;;;;;2.65;0.60;;;6.90;86.50;;;;;;5031769;28;21558;-63
2023/01/11 02:57:45;;;;;;;2.60;0.70;;;6.90;86.60;;;;;;5045682;28;20067;-69
2023/01/11 03:00:16;;;;;;;1.95;0.70;;;6.90;86.60;;;;;;5040985;28;20150;-71
2023/01/11 03:02:43;;;;;;;3.05;0.70;;;6.90;86.70;;;;;;5038405;28;20049;-69
2023/01/11 03:05:12;;;;;;;4.45;0.90;;;6.80;86.50;;;;;;5037333;28;20049;-69
2023/01/11 03:07:54;;;;;;;2.38;0.63;;;6.90;86.80;;;;;;5039650;28;20136;-69
2023/01/11 03:10:33;;;;;;;2.58;0.70;;;6.90;86.60;;;;;;5047112;28;20061;-69
2023/01/11 03:13:12;;;;;;;3.28;0.85;;;6.90;86.70;;;;;;5041920;28;20079;-70
2023/01/11 03:15:54;;;;;;;2.20;0.60;;;6.90;86.90;;;;;;5040177;28;20131;-69
2023/01/11 03:18:40;;;;;;;1.55;0.60;;;6.90;87.20;;;;;;5040082;28;20040;-69
2023/01/11 03:21:19;;;;;;;2.28;0.85;;;6.90;86.90;;;;;;5049231;28;20056;-69
2023/01/11 03:23:57;;;;;;;2.33;0.63;;;6.90;87.10;;;;;;5054888;28;20091;-70
2023/01/11 03:26:34;;;;;;;3.03;0.73;;;7.00;87.20;;;;;;5049026;28;20049;-70
2023/01/11 03:29:10;;;;;;;2.75;0.95;;;7.00;87.30;;;;;;5048739;28;20499;-68
2023/01/11 03:31:40;;;;;;;4.05;1.00;;;7.00;87.00;;;;;;5050318;28;20561;-69
2023/01/11 03:34:14;;;;;;;2.20;0.85;;;7.00;87.60;;;;;;5051242;28;20052;-70
2023/01/11 03:36:47;;;;;;;2.55;0.80;;;7.00;87.50;;;;;;5049240;28;20041;-70
2023/01/11 03:39:21;;;;;;;2.50;1.00;;;7.00;87.50;;;;;;5039760;28;20127;-70
2023/01/11 03:41:51;;;;;;;2.88;0.88;;;7.10;87.60;;;;;;5046826;28;20041;-71
2023/01/11 03:44:20;;;;;;;3.42;0.80;;;7.00;87.30;;;;;;5050881;28;20055;-70
2023/01/11 03:46:53;;;;;;;3.25;0.82;;;7.10;87.50;;;;;;5035107;28;20045;-64
2023/01/11 03:49:25;;;;;;;1.73;0.70;;;7.10;87.80;;;;;;5044715;28;20059;-64
2023/01/11 03:51:56;;;;;;;3.20;0.70;;;7.10;87.70;;;;;;5048528;28;20053;-60
2023/01/11 03:54:25;;;;;;;1.10;0.57;;;7.10;87.80;;;;;;5043913;28;20488;-61
2023/01/11 03:57:01;;;;;;;2.58;0.63;;;7.10;87.70;;;;;;5038569;28;20057;-62
2023/01/11 03:59:28;;;;;;;4.13;0.85;;;7.10;87.60;;;;;;5031060;28;20049;-63
2023/01/11 04:01:57;;;;;;;1.20;0.60;;;7.20;87.90;;;;;;5034078;28;20057;-64
2023/01/11 04:04:24;;;;;;;1.73;0.50;;;7.20;87.50;;;;;;5035881;28;20141;-63
2023/01/11 04:06:51;;;;;;;2.17;0.50;;;7.20;87.80;;;;;;5032485;28;20481;-62
2023/01/11 04:09:18;;;;;;;3.70;0.90;;;7.20;87.60;;;;;;5037780;28;20415;-63
2023/01/11 04:11:45;;;;;;;2.50;0.60;;;7.20;87.80;;;;;;5039561;28;20128;-60
2023/01/11 04:14:12;;;;;;;1.45;0.65;;;7.20;87.90;;;;;;5033321;28;20042;-62
2023/01/11 04:16:39;;;;;;;1.65;0.60;;;7.20;87.80;;;;;;5040464;28;20565;-62
2023/01/11 04:19:07;;;;;;;2.13;0.70;;;7.20;87.70;;;;;;5035772;28;20057;-62
2023/01/11 04:21:34;;;;;;;2.38;0.90;;;7.20;87.80;;;;;;5038164;28;20037;-60
2023/01/11 04:24:01;;;;;;;3.45;0.70;;;7.20;87.80;;;;;;5034268;28;20059;-60
2023/01/11 04:26:28;;;;;;;1.55;0.85;;;7.20;88.20;;;;;;5032937;28;20132;-59
2023/01/11 04:28:55;;;;;;;1.92;0.80;;;7.20;88.30;;;;;;5030368;28;20080;-60
2023/01/11 04:31:22;;;;;;;3.70;0.65;;;7.20;88.40;;;;;;5033072;28;20049;-64
2023/01/11 04:33:48;;;;;;;2.03;0.60;;;7.20;88.40;;;;;;5033245;28;20060;-61
2023/01/11 04:36:17;;;;;;;4.72;0.90;;;7.30;88.40;;;;;;5038605;28;20042;-63
2023/01/11 04:38:44;;;;;;;2.97;0.88;;;7.20;88.40;;;;;;5035111;28;20479;-63
2023/01/11 04:43:55;;;;;;;4.15;0.90;;;7.30;88.60;;;;;;5037344;28;20122;-61
2023/01/11 04:46:23;;;;;;;1.75;0.55;;;7.30;88.40;;;;;;5036054;28;20122;-60
2023/01/11 04:48:50;;;;;;;1.80;0.60;;;7.40;88.70;;;;;;5036478;28;20045;-62
2023/01/11 04:51:19;;;;;;;4.00;0.80;;;7.40;88.70;;;;;;5039847;28;20049;-60
2023/01/11 04:53:48;;;;;;;4.15;1.05;;;7.40;88.60;;;;;;5035235;28;20049;-61
2023/01/11 04:56:16;;;;;;;3.50;0.70;;;7.50;88.50;;;;;;5038864;28;20091;-60
2023/01/11 04:58:43;;;;;;;5.00;1.00;;;7.50;88.80;;;;;;5033539;28;20048;-61
2023/01/11 05:01:10;;;;;;;2.08;0.88;;;7.50;88.60;;;;;;5040948;28;20061;-61
2023/01/11 05:03:38;;;;;;;3.13;0.80;;;7.60;88.90;;;;;;5037450;28;20057;-60
2023/01/11 05:06:05;;;;;;;1.70;0.80;;;7.60;88.70;;;;;;5036844;28;20567;-61
2023/01/11 05:08:34;;;;;;;2.08;0.73;;;7.60;88.80;;;;;;5037912;28;20044;-59
2023/01/11 05:11:03;;;;;;;4.40;0.80;;;7.60;89.20;;;;;;5039282;28;20053;-61
2023/01/11 05:13:41;;;;;;;2.20;0.90;;;7.60;89.30;;;;;;5039265;28;20053;-60
2023/01/11 05:16:09;;;;;;;2.00;0.90;;;7.60;89.50;;;;;;5035508;28;20099;-61
2023/01/11 05:18:36;;;;;;;2.03;0.80;;;7.60;89.70;;;;;;5051528;28;20100;-61
2023/01/11 05:21:05;;;;;;;2.17;0.70;;;7.60;89.60;;;;;;5057852;28;20183;-60
2023/01/11 05:23:34;;;;;;;2.00;0.68;;;7.60;89.80;;;;;;5049858;28;20135;-60
2023/01/11 05:26:02;;;;;;;2.47;0.80;;;7.60;89.90;;;;;;5046250;28;20094;-58
2023/01/11 05:28:29;;;;;;;2.38;0.60;;;7.60;90.00;;;;;;5039103;28;20152;-58
2023/01/11 05:30:56;;;;;;;2.15;0.73;;;7.60;89.90;;;;;;5043104;28;20057;-61
2023/01/11 05:33:23;;;;;;;2.17;0.70;;;7.70;89.90;;;;;;5047448;28;20137;-61
2023/01/11 05:35:50;;;;;;;2.70;0.70;;;7.70;89.90;;;;;;5034139;28;20072;-60
2023/01/11 05:38:17;;;;;;;2.13;0.52;;;7.70;90.00;;;;;;5039201;28;20068;-61
2023/01/11 05:40:52;;;;;;;2.70;0.80;;;7.70;90.00;;;;;;5041188;28;20057;-71
2023/01/11 05:43:19;;;;;;;2.80;0.60;;;7.70;90.00;;;;;;5040911;28;20794;-70
2023/01/11 05:45:45;;;;;;;4.55;0.80;;;7.70;90.00;;;;;;5040234;28;20041;-70
2023/01/11 05:48:13;;;;;;;2.13;0.90;;;7.70;89.90;;;;;;5041318;28;20045;-72
2023/01/11 05:50:40;;;;;;;2.05;0.70;;;7.70;90.00;;;;;;5042281;28;20132;-70
2023/01/11 05:53:07;;;;;;;3.03;0.90;;;7.70;89.90;;;;;;5045917;28;20075;-70
2023/01/11 05:55:34;;;;;;;2.90;0.70;;;7.70;89.90;;;;;;5052923;28;20068;-62
2023/01/11 05:58:04;;;;;;;1.85;0.68;;;7.70;89.70;;;;;;5047810;28;20045;-61
2023/01/11 06:00:34;;;;;;;3.45;0.68;;;7.80;89.90;;;;;;5046660;28;20140;-63
2023/01/11 06:03:02;;;;;;;1.80;0.60;;;7.80;89.90;;;;;;5048093;28;20068;-58
2023/01/11 06:05:29;;;;;;;1.92;0.68;;;7.80;89.90;;;;;;5049673;28;20155;-58
2023/01/11 06:07:55;;;;;;;2.83;0.77;;;7.80;90.00;;;;;;5052299;28;20059;-57
2023/01/11 06:10:22;;;;;;;2.95;0.80;;;7.90;90.10;;;;;;5057505;28;20049;-60
2023/01/11 06:13:25;;;;;;;2.72;0.60;;;7.80;90.10;;;;;;5042981;28;20075;-57
2023/01/11 06:15:42;;;;;;;2.65;0.75;;;7.90;90.00;;;;;;5052697;28;20072;-59
2023/01/11 06:18:10;;;;;;;4.87;0.90;;;7.90;90.10;;;;;;5052252;28;20103;-58
2023/01/11 06:20:37;;;;;;;2.70;0.80;;;7.90;90.20;;;;;;5052080;28;20084;-58
2023/01/11 06:23:04;;;;;;;1.17;0.60;;;7.90;90.00;;;;;;5049533;28;20137;-58
2023/01/11 06:25:31;;;;;;;1.75;0.52;;;7.90;90.20;;;;;;5049553;28;20053;-58
2023/01/11 06:27:59;;;;;;;1.52;0.57;;;8.00;90.30;;;;;;5052065;28;20053;-58
2023/01/11 06:30:26;;;;;;;2.05;0.50;;;8.00;90.30;;;;;;5051679;28;20158;-58
2023/01/11 06:33:04;;;;;;;1.67;0.65;;;8.00;90.30;;;;;;5051979;28;20105;-58
2023/01/11 06:35:31;;;;;;;1.45;0.52;;;8.00;90.30;;;;;;5045436;28;20049;-58
2023/01/11 06:37:57;;;;;;;1.75;0.68;;;8.10;90.30;;;;;;5050193;28;20049;-58
2023/01/11 06:40:24;;;;;;;1.40;0.70;;;8.00;90.30;;;;;;5052318;28;20048;-58
2023/01/11 06:42:51;;;;;;;1.40;0.52;;;8.10;90.40;;;;;;5049264;28;20053;-60
2023/01/11 06:45:18;;;;;;;1.73;0.50;;;8.10;90.50;;;;;;5047141;28;20155;-58
2023/01/11 06:47:45;;;;;;;1.70;0.60;;;8.10;90.30;;;;;;5047344;28;20261;-58
2023/01/11 06:50:13;;;;;;;1.48;0.52;;;8.10;90.40;;;;;;5051648;28;20045;-58
2023/01/11 06:52:40;;;;;;;2.60;0.60;;;8.20;90.50;;;;;;5051603;28;20052;-63
2023/01/11 06:55:08;;;;;;;1.63;0.60;;;8.20;90.50;;;;;;5058629;28;20041;-63
2023/01/11 06:57:35;;;;;;;1.52;0.60;;;8.10;90.30;;;;;;5041951;28;20101;-63
2023/01/11 07:00:02;;;;;;;1.20;0.32;;;8.20;90.30;;;;;;5040236;28;20053;-64
2023/01/11 07:02:31;;;;;;;2.92;0.60;;;8.20;90.30;;;;;;5042770;28;20076;-68
2023/01/11 07:04:58;;;;;;;2.08;0.50;;;8.20;90.50;;;;;;5038974;28;20090;-65
2023/01/11 07:07:28;;;;;;;2.35;0.65;;;8.20;90.50;;;;;;5042403;28;20044;-63
2023/01/11 07:09:55;;;;;;;1.25;0.40;;;8.20;90.60;;;;;;5041239;28;20144;-63
2023/01/11 07:12:22;;;;;;;1.20;0.50;;;8.20;90.60;;;;;;5035754;28;20045;-65
2023/01/11 07:14:49;;;;;;;1.52;0.40;;;8.30;90.70;;;;;;5047870;28;20529;-63
2023/01/11 07:17:16;;;;;;;1.88;0.70;;;8.30;90.70;;;;;;5043243;28;20064;-63
2023/01/11 07:19:43;;;;;;;2.38;0.55;;;8.30;90.60;;;;;;5038861;28;20056;-64
2023/01/11 07:22:10;;;;;;;1.42;0.52;;;8.30;90.80;;;;;;5038439;28;20075;-62
2023/01/11 07:24:38;;;;;;;2.28;0.52;;;8.30;90.80;;;;;;5035293;28;20041;-62
2023/01/11 07:27:05;;;;;;;1.95;0.68;;;8.30;91.10;;;;;;5037798;28;20044;-62
2023/01/11 07:29:32;;;;;;;2.35;0.50;;;8.30;91.00;;;;;;5032314;28;20133;-61
2023/01/11 07:31:59;;;;;;;1.02;0.47;;;8.30;91.20;;;;;;5033201;28;20049;-61
2023/01/11 07:34:25;;;;;;;1.77;0.85;;;8.30;91.60;;;;;;5034826;28;20041;-61
2023/01/11 07:36:52;;;;;;;1.63;0.40;;;8.30;91.50;;;;;;5036955;28;20051;-62
2023/01/11 07:39:19;;;;;;;1.95;0.50;;;8.30;91.50;;;;;;5031177;28;20500;-62
2023/01/11 07:44:32;;;;;;;2.92;0.60;;;8.30;91.80;;;;;;5035673;28;20049;-62
2023/01/11 07:46:59;;;;;;;1.58;0.60;;;8.40;91.80;;;;;;5033435;28;20091;-63
2023/01/11 07:49:26;;;;;;;1.20;0.50;;;8.40;91.90;;;;;;5035064;28;20067;-62
2023/01/11 07:51:53;;;;;;;2.15;0.57;;;8.40;91.70;;;;;;5032736;28;20060;-62
2023/01/11 07:54:20;;;;;;;1.70;0.75;;;8.40;91.80;;;;;;5034340;28;20044;-62
2023/01/11 07:56:48;;;;;;;2.33;0.50;;;8.40;92.00;;;;;;5035265;28;20048;-62
2023/01/11 07:59:15;;;;;;;1.48;0.40;;;8.40;92.10;;;;;;5040268;28;20138;-61
2023/01/11 08:01:42;;;;;;;1.52;0.60;;;8.40;92.20;;;;;;5037955;28;20057;-69
2023/01/11 08:04:12;;;;;;;2.10;0.77;;;8.40;92.30;;;;;;5036831;28;20099;-70
2023/01/11 08:06:39;;;;;;;1.77;0.57;;;8.40;92.40;;;;;;5034111;28;20049;-58
2023/01/11 08:09:06;;;;;;;0.95;0.40;;;8.40;92.30;;;;;;5043963;28;20061;-57
2023/01/11 08:17:03;;;;;;;1.05;0.38;;;8.50;92.30;;;;;;5044815;28;20045;-58
2023/01/11 08:19:30;;;;;;;0.63;0.32;;;8.50;92.30;;;;;;5045052;28;20488;-59
2023/01/11 08:21:57;;;;;;;1.20;0.32;;;8.50;92.40;;;;;;5045722;28;20045;-64
2023/01/11 08:24:24;;;;;;;1.83;0.50;;;8.50;92.30;;;;;;5048142;28;20056;-63
2023/01/11 08:26:51;;;;;;;1.58;0.60;;;8.50;92.50;;;;;;5047787;28;20068;-64
2023/01/11 08:29:20;;;;;;;1.98;0.75;;;8.50;92.40;;;;;;5048712;28;20107;-65
2023/01/11 08:31:47;;;;;;;1.30;0.50;;;8.60;92.70;;;;;;5047686;28;20036;-64
2023/01/11 08:34:14;;;;;;;1.27;0.50;;;8.50;92.70;;;;;;5051655;28;20075;-64
2023/01/11 08:36:41;;;;;;;1.35;0.68;;;8.60;92.80;;;;;;5050745;28;20570;-67
2023/01/11 08:39:08;;;;;;;1.00;0.30;;;8.60;92.60;;;;;;5050810;28;20415;-67
2023/01/11 08:41:37;;;;;;;1.40;0.20;;;8.60;92.80;;;;;;5049049;28;20049;-66
2023/01/11 08:44:04;;;;;;;1.45;0.50;;;8.60;92.80;;;;;;5050263;28;20091;-65
2023/01/11 08:46:33;;;;;;;0.73;0.30;;;8.60;92.80;;;;;;5051587;28;20055;-69
2023/01/11 08:49:00;;;;;;;2.58;0.40;;;8.60;92.90;;;;;;5052340;28;20040;-69
2023/01/11 08:51:27;;;;;;;1.13;0.30;;;8.60;92.90;;;;;;5063054;28;20048;-60
2023/01/11 08:53:54;;;;;;;1.20;0.50;;;8.60;93.00;;;;;;5061317;28;20495;-60
2023/01/11 08:56:21;;;;;;;1.65;0.52;;;8.70;93.10;;;;;;5051577;28;20053;-60
2023/01/11 08:58:47;;;;;;;1.58;0.40;;;8.70;92.90;;;;;;5044773;28;20150;-61
2023/01/11 09:01:14;;;;;;;0.57;0.30;;;8.70;92.90;;;;;;5049276;28;20495;-62
2023/01/11 09:03:43;;;;;;;1.45;0.43;;;8.70;92.90;;;;;;5047421;28;20041;-62
2023/01/11 09:06:10;;;;;;;1.13;0.40;;;8.70;92.90;;;;;;5049856;28;20061;-61
2023/01/11 09:08:37;;;;;;;1.00;0.43;;;8.70;92.90;;;;;;5042106;28;20056;-63
2023/01/11 09:11:52;;;;;;;1.75;0.40;;;8.70;92.90;;;;;;5056155;28;20048;-61
2023/01/11 09:13:50;;;;;;;1.85;0.35;;;8.70;92.90;;;;;;5050254;28;20057;-62
2023/01/11 09:16:18;;;;;;;0.50;0.20;;;8.70;93.00;;;;;;5052102;28;20044;-62
2023/01/11 09:18:46;;;;;;;0.47;0.25;;;8.70;92.90;;;;;;5046298;28;20557;-62
2023/01/11 09:21:13;;;;;;;0.73;0.47;;;8.80;93.00;;;;;;5043087;28;20049;-61
2023/01/11 09:23:40;;;;;;;1.33;0.30;;;8.70;92.90;;;;;;5054085;28;20060;-61
2023/01/11 09:26:07;;;;;;;1.83;0.30;;;8.80;93.00;;;;;;5050756;28;20047;-60
2023/01/11 09:28:33;;;;;;;0.90;0.40;;;8.80;92.90;;;;;;5042261;28;20044;-62
2023/01/11 09:31:00;;;;;;;2.47;0.63;;;8.80;93.00;;;;;;5049543;28;20052;-61
2023/01/11 09:33:27;;;;;;;2.80;1.02;;;8.80;93.00;;;;;;5052078;28;20052;-62
2023/01/11 09:35:59;;;;;;;2.83;1.00;;;8.80;93.20;;;;;;5044673;28;20068;-61
2023/01/11 09:38:28;;;;;;;4.05;1.20;;;8.90;93.10;;;;;;5048999;28;20052;-61
2023/01/11 09:41:05;;;;;;;4.10;1.20;;;8.90;93.10;;;;;;5053589;28;20054;-62
2023/01/11 09:43:37;;;;;;;2.28;0.95;;;8.90;93.10;;;;;;5037051;28;20502;-61
2023/01/11 09:46:07;;;;;;;2.30;1.00;;;8.90;93.10;;;;;;5037526;28;20132;-62
2023/01/11 09:48:38;;;;;;;2.63;0.80;;;8.90;93.10;;;;;;5039291;28;20068;-61
2023/01/11 09:51:08;;;;;;;1.80;0.90;;;8.90;93.10;;;;;;5037968;28;20415;-62
2023/01/11 09:53:37;;;;;;;2.80;0.90;;;8.90;93.30;;;;;;5042175;28;20393;-60
2023/01/11 09:56:07;;;;;;;1.88;0.70;;;8.90;93.20;;;;;;5043736;28;20056;-69
2023/01/11 09:58:49;;;;;;;2.30;0.80;;;8.90;93.10;;;;;;5039182;28;20593;-67
2023/01/11 10:01:22;;;;;;;6.07;1.98;;;8.90;93.40;;;;;;5052744;28;20102;-67
2023/01/11 10:04:07;;;;;;;13.07;3.83;;;8.90;93.30;;;;;;5048888;28;20053;-68
2023/01/11 10:06:47;;;;;;;14.57;4.40;;;8.90;93.30;;;;;;5047911;28;20050;-68
2023/01/11 10:09:29;;;;;;;10.90;4.25;;;8.90;93.20;;;;;;5049233;28;20067;-68
2023/01/11 10:12:11;;;;;;;8.85;3.25;;;8.90;93.40;;;;;;5044059;28;20701;-59
2023/01/11 10:14:52;;;;;;;5.97;2.13;;;9.00;93.40;;;;;;5049087;28;20053;-59
2023/01/11 10:17:31;;;;;;;3.17;1.40;;;9.00;93.40;;;;;;5040523;28;20044;-62
2023/01/11 10:20:03;;;;;;;3.47;1.20;;;9.00;93.30;;;;;;5044889;28;20053;-60
2023/01/11 10:22:39;;;;;;;3.13;0.90;;;9.00;93.30;;;;;;5052018;28;20086;-61
2023/01/11 10:25:17;;;;;;;3.05;0.80;;;9.00;93.40;;;;;;5047978;28;20057;-59
2023/01/11 10:27:54;;;;;;;2.45;0.75;;;9.00;93.40;;;;;;5055053;28;20102;-60
2023/01/11 10:30:38;;;;;;;2.20;0.70;;;9.00;93.40;;;;;;5060582;28;20053;-58
2023/01/11 10:33:28;;;;;;;1.85;0.98;;;9.10;93.40;;;;;;5058601;28;20470;-58
2023/01/11 10:36:13;;;;;;;1.58;0.45;;;9.10;93.30;;;;;;5047315;28;20044;-57
2023/01/11 10:38:57;;;;;;;0.70;0.47;;;9.10;93.40;;;;;;5060195;28;20400;-58
2023/01/11 10:41:36;;;;;;;2.08;0.57;;;9.10;93.30;;;;;;5060239;28;20057;-59
2023/01/11 10:44:17;;;;;;;2.42;0.65;;;9.10;93.30;;;;;;5055813;28;20546;-60
2023/01/11 10:46:48;;;;;;;1.65;0.60;;;9.20;93.40;;;;;;5051663;28;20063;-59
2023/01/11 10:49:30;;;;;;;1.50;0.70;;;9.10;93.40;;;;;;5055504;28;20079;-61
2023/01/11 10:52:03;;;;;;;3.72;1.30;;;9.10;93.30;;;;;;5058257;28;20055;-59
2023/01/11 10:54:35;;;;;;;4.50;1.38;;;9.20;93.40;;;;;;5056411;28;20109;-60
2023/01/11 10:57:12;;;;;;;4.80;1.60;;;9.10;93.50;;;;;;5060114;28;20094;-59
2023/01/11 10:59:54;;;;;;;3.97;1.58;;;9.20;93.50;;;;;;5060745;28;20048;-60
2023/01/11 11:02:35;;;;;;;4.45;1.70;;;9.20;93.50;;;;;;5043920;28;20044;-59
2023/01/11 11:05:16;;;;;;;3.50;1.08;;;9.20;93.40;;;;;;5051382;28;20052;-60
2023/01/11 11:07:52;;;;;;;3.95;1.10;;;9.20;93.40;;;;;;5047888;28;20049;-59
2023/01/11 11:10:28;;;;;;;2.50;0.98;;;9.20;93.40;;;;;;5046795;28;20127;-60
2023/01/11 11:13:03;;;;;;;2.20;0.80;;;9.20;93.40;;;;;;5045449;28;20052;-60
2023/01/11 11:15:36;;;;;;;2.17;0.90;;;9.20;93.40;;;;;;5047086;28;20053;-59
2023/01/11 11:18:03;;;;;;;1.98;0.63;;;9.30;93.40;;;;;;5050765;28;20047;-60
2023/01/11 11:20:32;;;;;;;2.05;0.70;;;9.30;93.40;;;;;;5046899;28;20056;-61
2023/01/11 11:23:01;;;;;;;1.90;0.60;;;9.30;93.40;;;;;;5048251;28;20128;-60
2023/01/11 11:25:32;;;;;;;2.50;0.98;;;9.30;93.50;;;;;;5049232;28;20410;-59
2023/01/11 11:28:03;;;;;;;1.88;0.75;;;9.30;93.50;;;;;;5045759;28;20052;-60
2023/01/11 11:30:33;;;;;;;1.30;0.50;;;9.30;93.50;;;;;;5042514;28;20484;-59
2023/01/11 11:33:02;;;;;;;1.60;0.53;;;9.30;93.60;;;;;;5038816;28;20136;-60
2023/01/11 11:35:35;;;;;;;1.65;0.60;;;9.30;93.60;;;;;;5034523;28;20052;-59
2023/01/11 11:38:03;;;;;;;1.50;0.60;;;9.30;93.60;;;;;;5035510;28;20626;-59
2023/01/11 11:40:34;;;;;;;1.55;0.45;;;9.30;93.60;;;;;;5038367;28;20036;-62
2023/01/11 11:43:21;;;;;;;2.17;0.70;;;9.30;93.50;;;;;;5032378;28;20132;-64
2023/01/11 11:45:54;;;;;;;1.40;0.52;;;9.30;93.50;;;;;;5036430;28;20061;-63
2023/01/11 11:48:21;;;;;;;0.98;0.40;;;9.40;93.50;;;;;;5038417;28;20045;-63
2023/01/11 11:50:50;;;;;;;1.02;0.60;;;9.30;93.30;;;;;;5036254;28;21235;-62
2023/01/11 11:53:35;;;;;;;0.93;0.30;;;9.40;93.40;;;;;;5036594;28;20492;-62
2023/01/11 11:56:16;;;;;;;1.02;0.40;;;9.40;93.20;;;;;;5035257;28;20076;-59
2023/01/11 11:58:44;;;;;;;0.93;0.40;;;9.40;93.20;;;;;;5034813;28;20045;-59
2023/01/11 12:01:25;;;;;;;1.38;0.47;;;9.40;93.30;;;;;;5037353;28;20476;-69
2023/01/11 12:03:56;;;;;;;1.02;0.50;;;9.40;93.30;;;;;;5031016;28;20056;-68
2023/01/11 12:06:26;;;;;;;2.08;0.60;;;9.40;93.30;;;;;;5038394;28;20057;-68
2023/01/11 12:08:54;;;;;;;2.05;0.75;;;9.40;93.30;;;;;;5041012;28;20184;-67
2023/01/11 12:11:28;;;;;;;1.30;0.65;;;9.40;93.40;;;;;;5039510;28;20046;-67
2023/01/11 12:14:11;;;;;;;1.73;0.50;;;9.40;93.40;;;;;;5039820;28;20130;-68
2023/01/11 12:16:40;;;;;;;1.73;0.73;;;9.50;93.30;;;;;;5036215;28;20064;-60
2023/01/11 12:19:29;;;;;;;1.70;0.60;;;9.50;93.20;;;;;;5037441;28;20056;-60
2023/01/11 12:22:11;;;;;;;1.73;0.63;;;9.50;93.10;;;;;;5051809;28;20050;-59
2023/01/11 12:24:38;;;;;;;1.75;0.70;;;9.60;93.10;;;;;;5052919;28;20052;-59
2023/01/11 12:27:16;;;;;;;1.13;0.50;;;9.60;93.10;;;;;;5051758;28;20487;-60
2023/01/11 12:29:53;;;;;;;2.25;0.50;;;9.70;93.10;;;;;;5053281;28;20132;-59
2023/01/11 12:32:44;;;;;;;1.67;0.60;;;9.70;93.10;;;;;;5054782;28;20060;-60
2023/01/11 12:35:25;;;;;;;1.40;0.52;;;9.70;93.00;;;;;;5049736;28;20045;-57
2023/01/11 12:38:06;;;;;;;1.20;0.60;;;9.70;93.00;;;;;;5040253;28;20041;-57
2023/01/11 12:40:39;;;;;;;1.58;0.73;;;9.70;93.00;;;;;;5039075;28;20055;-59
2023/01/11 12:43:33;;;;;;;1.80;0.77;;;9.80;92.90;;;;;;5049469;28;20049;-58
2023/01/11 12:46:08;;;;;;;1.83;0.80;;;9.80;92.90;;;;;;5050849;28;20468;-57
2023/01/11 12:48:45;;;;;;;1.73;0.90;;;9.80;92.90;;;;;;5053779;28;20055;-58
2023/01/11 12:51:27;;;;;;;3.20;1.15;;;9.80;92.80;;;;;;5047111;28;20056;-58
2023/01/11 12:54:07;;;;;;;1.77;0.85;;;9.80;92.70;;;;;;5038669;28;20056;-58
2023/01/11 12:56:48;;;;;;;;;;;9.80;92.70;;;;;;5043740;28;20059;-57
2023/01/11 12:59:36;;;;;;;2.40;1.02;;;9.80;92.70;;;;;;5044197;28;20268;-58
2023/01/11 13:02:20;;;;;;;2.35;0.73;;;9.80;92.70;;;;;;5059069;28;20044;-57
2023/01/11 13:04:58;;;;;;;2.35;1.00;;;9.80;92.70;;;;;;5050273;28;20048;-57
2023/01/11 13:07:43;;;;;;;1.90;0.95;;;9.70;92.70;;;;;;5049552;28;20136;-58
2023/01/11 13:10:26;;;;;;;2.47;1.00;;;9.70;92.70;;;;;;5052776;28;20135;-57
2023/01/11 13:13:07;;;;;;;3.65;1.30;;;9.70;92.70;;;;;;5053662;28;20502;-57
2023/01/11 13:15:43;;;;;;;3.03;1.35;;;9.70;92.60;;;;;;5049694;28;20057;-67
2023/01/11 13:18:22;;;;;;;2.42;1.20;;;9.70;92.70;;;;;;5049391;28;20053;-65
2023/01/11 13:20:53;;;;;;;2.88;0.98;;;9.70;92.70;;;;;;5049126;28;20045;-65
2023/01/11 13:23:31;;;;;;;3.53;1.38;;;9.70;92.60;;;;;;5052257;28;20048;-65
2023/01/11 13:26:03;;;;;;;2.63;1.02;;;9.70;92.70;;;;;;5045832;28;20045;-66
2023/01/11 13:28:37;;;;;;;2.42;0.80;;;9.70;92.80;;;;;;5042331;28;20068;-66
2023/01/11 13:31:09;;;;;;;1.70;0.80;;;9.70;92.80;;;;;;5049806;28;20051;-58
2023/01/11 13:33:40;;;;;;;3.40;1.10;;;9.70;92.80;;;;;;5052477;28;20071;-60
2023/01/11 13:36:13;;;;;;;2.20;0.80;;;9.70;92.80;;;;;;5043767;28;20045;-57
2023/01/11 13:38:45;;;;;;;3.47;1.13;;;9.70;92.80;;;;;;5048997;28;20124;-58
2023/01/11 13:41:17;;;;;;;3.95;1.33;;;9.70;92.80;;;;;;5061040;28;20457;-57